Terminal Aerodrome Forecast
Issued by NWS

Home | Current Version | Previous Version | Text Only | Print | Product List | Glossary On
Versions: 1 2 3 4 5 6 7 8 9 10 11 12 13 14 15 16 17
875
FTUS42 KGSP 271142
TAFAND
TAF
KAND 271142Z 2712/2812 24008KT P6SM FEW060 BKN250
     FM271800 24012G20KT P6SM SCT060 BKN250
     FM272300 23008KT P6SM BKN060 PROB30 2800/2806 4SM -TSRA
      BKN040CB
     FM280600 24004KT P6SM BKN060=

USA.gov is the U.S. government's official web portal to all federal, state and local government web resources and services.